createdAt,value
2019-04-30T00:02:01.754Z,2.17
2019-04-30T00:04:40.145Z,1.50
2019-04-30T00:07:05.643Z,1.57
2019-04-30T00:09:35.834Z,1.50
2019-04-30T00:12:05.641Z,1.60
2019-04-30T00:14:39.930Z,3.27
2019-04-30T00:17:06.225Z,2.75
2019-04-30T00:19:35.930Z,5.28
2019-04-30T00:22:05.716Z,3.02
2019-04-30T00:24:35.507Z,1.98
2019-04-30T00:27:05.122Z,1.90
2019-04-30T00:29:33.555Z,2.67
2019-04-30T00:32:04.218Z,1.98
2019-04-30T00:34:36.002Z,2.85
2019-04-30T00:37:02.049Z,2.40
2019-04-30T00:39:30.388Z,2.98
2019-04-30T00:41:58.620Z,2.05
2019-04-30T00:44:28.374Z,2.45
2019-04-30T00:47:00.739Z,1.65
2019-04-30T00:49:26.853Z,1.65
2019-04-30T00:51:58.145Z,1.55
2019-04-30T00:54:30.844Z,2.12
2019-04-30T00:57:03.765Z,1.42
2019-04-30T00:59:27.985Z,1.75
2019-04-30T01:02:12.778Z,2.05
2019-04-30T01:04:42.738Z,1.67
2019-04-30T01:07:11.639Z,1.32
2019-04-30T01:09:46.544Z,1.90
2019-04-30T01:12:09.925Z,1.60
2019-04-30T01:14:38.739Z,1.95
2019-04-30T01:17:08.829Z,1.60
2019-04-30T01:19:36.930Z,1.50
2019-04-30T01:22:05.272Z,1.60
2019-04-30T01:24:33.579Z,1.60
2019-04-30T01:27:06.913Z,2.65
2019-04-30T01:29:38.151Z,2.05
2019-04-30T01:32:02.503Z,5.00
2019-04-30T01:34:30.896Z,2.15
2019-04-30T01:37:02.657Z,1.80
2019-04-30T01:39:31.722Z,1.52
2019-04-30T01:42:02.963Z,1.87
2019-04-30T01:44:30.121Z,1.85
2019-04-30T01:46:58.876Z,1.50
2019-04-30T01:49:28.914Z,1.50
2019-04-30T01:51:58.485Z,2.25
2019-04-30T01:54:29.013Z,1.57
2019-04-30T01:57:04.202Z,6.72
2019-04-30T01:59:50.424Z,2.58
2019-04-30T02:02:19.771Z,2.42
2019-04-30T02:04:49.238Z,1.50
2019-04-30T02:07:19.085Z,2.12
2019-04-30T02:09:48.931Z,2.08
2019-04-30T02:12:21.681Z,3.40
2019-04-30T02:14:49.463Z,2.70
2019-04-30T02:17:19.157Z,1.52
2019-04-30T02:19:56.402Z,1.37
2019-04-30T02:22:18.832Z,2.77
2019-04-30T02:24:48.605Z,1.70
2019-04-30T02:27:19.185Z,1.52
2019-04-30T02:29:47.150Z,4.45
2019-04-30T02:32:15.460Z,2.00
2019-04-30T02:34:51.251Z,2.77
2019-04-30T02:37:21.222Z,1.72
2019-04-30T02:39:50.284Z,1.60
2019-04-30T02:42:20.184Z,2.10
2019-04-30T02:44:50.466Z,3.08
2019-04-30T02:47:20.481Z,1.70
2019-04-30T02:49:49.977Z,1.40
2019-04-30T02:52:19.653Z,2.65
2019-04-30T02:54:50.082Z,1.87
2019-04-30T02:57:20.411Z,1.40
2019-04-30T03:00:06.025Z,1.50
2019-04-30T03:02:34.322Z,1.57
2019-04-30T03:05:02.867Z,1.40
2019-04-30T03:07:31.253Z,1.47
2019-04-30T03:10:00.132Z,1.67
2019-04-30T03:12:33.204Z,1.80
2019-04-30T03:15:00.467Z,2.52
2019-04-30T03:17:33.127Z,1.55
2019-04-30T03:20:03.443Z,1.65
2019-04-30T03:22:31.959Z,1.60
2019-04-30T03:25:00.338Z,1.50
2019-04-30T03:27:30.177Z,2.12
2019-04-30T03:30:00.128Z,2.55
2019-04-30T03:32:31.606Z,1.50
2019-04-30T03:35:03.282Z,1.42
2019-04-30T03:37:29.445Z,1.65
2019-04-30T03:40:00.492Z,1.40
2019-04-30T03:42:29.543Z,1.60
2019-04-30T03:44:59.268Z,1.40
2019-04-30T03:47:30.072Z,2.10
2019-04-30T03:50:00.026Z,1.37
2019-04-30T03:52:29.150Z,3.27
2019-04-30T03:54:59.621Z,3.10
2019-04-30T03:57:30.113Z,3.65
2019-04-30T03:59:59.444Z,1.40
2019-04-30T04:02:30.253Z,1.20
2019-04-30T04:05:01.173Z,1.40
2019-04-30T04:07:31.270Z,1.22
2019-04-30T04:10:01.219Z,1.20
2019-04-30T04:12:30.383Z,1.10
2019-04-30T04:15:03.309Z,1.57
2019-04-30T04:17:31.425Z,1.52
2019-04-30T04:19:59.774Z,1.65
2019-04-30T04:22:30.597Z,1.92
2019-04-30T04:25:00.007Z,1.47
2019-04-30T04:27:30.082Z,1.30
2019-04-30T04:30:00.747Z,1.47
2019-04-30T04:32:30.723Z,1.37
2019-04-30T04:35:00.215Z,1.95
2019-04-30T04:37:30.286Z,1.50
2019-04-30T04:39:59.536Z,1.40
2019-04-30T04:42:30.006Z,1.60
2019-04-30T04:44:59.479Z,1.60
2019-04-30T04:47:30.664Z,1.60
2019-04-30T04:50:00.576Z,2.25
2019-04-30T04:52:31.112Z,2.12
2019-04-30T04:55:00.442Z,1.75
2019-04-30T04:57:30.499Z,1.60
2019-04-30T05:00:03.468Z,1.70
2019-04-30T05:02:41.754Z,3.35
2019-04-30T05:05:10.098Z,6.53
2019-04-30T05:07:39.923Z,5.70
2019-04-30T05:10:09.199Z,5.80
2019-04-30T05:12:39.658Z,3.87
2019-04-30T05:15:09.482Z,4.47
2019-04-30T05:17:39.807Z,1.60
2019-04-30T05:20:09.788Z,2.77
2019-04-30T05:22:38.881Z,3.12
2019-04-30T05:25:08.829Z,2.00
2019-04-30T05:27:39.062Z,2.58
2019-04-30T05:30:09.757Z,3.37
2019-04-30T05:32:39.115Z,4.33
2019-04-30T05:35:09.385Z,1.77
2019-04-30T05:37:38.459Z,5.05
2019-04-30T05:40:08.948Z,5.20
2019-04-30T05:42:38.516Z,8.55
2019-04-30T05:45:09.298Z,8.20
2019-04-30T05:47:38.852Z,7.37
2019-04-30T05:50:08.918Z,5.15
2019-04-30T05:52:39.503Z,5.35
2019-04-30T05:55:08.546Z,7.37
2019-04-30T05:57:37.015Z,4.72
2019-04-30T06:00:06.657Z,7.50
2019-04-30T06:02:34.970Z,6.85
2019-04-30T06:05:04.473Z,8.68
2019-04-30T06:07:32.796Z,5.33
2019-04-30T06:10:11.527Z,6.05
2019-04-30T06:12:59.466Z,6.10
2019-04-30T06:15:31.924Z,6.42
2019-04-30T06:18:10.583Z,6.08
2019-04-30T06:20:30.358Z,11.57
2019-04-30T06:22:59.719Z,7.42
2019-04-30T06:25:33.720Z,5.58
2019-04-30T06:27:58.910Z,4.33
2019-04-30T06:30:29.537Z,5.83
2019-04-30T06:32:59.232Z,4.50
2019-04-30T06:35:29.353Z,6.85
2019-04-30T06:37:58.965Z,7.47
2019-04-30T06:40:29.368Z,6.97
2019-04-30T06:43:00.402Z,7.22
2019-04-30T06:45:28.999Z,5.87
2019-04-30T06:47:58.784Z,5.95
2019-04-30T06:50:29.160Z,4.87
2019-04-30T06:53:01.015Z,5.53
2019-04-30T06:55:30.689Z,5.28
2019-04-30T06:58:09.645Z,24.60
2019-04-30T07:00:35.562Z,15.85
2019-04-30T07:03:04.474Z,15.72
2019-04-30T07:05:32.876Z,16.50
2019-04-30T07:08:09.079Z,13.83
2019-04-30T07:10:33.010Z,15.23
2019-04-30T07:13:18.781Z,14.28
2019-04-30T07:15:48.892Z,11.50
2019-04-30T07:18:18.860Z,13.65
2019-04-30T07:20:48.657Z,13.80
2019-04-30T07:23:18.823Z,16.00
2019-04-30T07:25:51.370Z,13.72
2019-04-30T07:28:19.082Z,12.88
2019-04-30T07:30:49.350Z,16.67
2019-04-30T07:33:20.733Z,14.35
2019-04-30T07:35:49.858Z,16.50
2019-04-30T07:38:19.328Z,14.83
2019-04-30T07:40:49.328Z,17.85
2019-04-30T07:43:19.025Z,16.32
2019-04-30T07:45:49.591Z,15.35
2019-04-30T07:48:21.082Z,15.60
2019-04-30T07:50:51.339Z,14.47
2019-04-30T07:53:18.824Z,15.30
2019-04-30T07:55:49.241Z,17.10
2019-04-30T07:58:20.200Z,15.85
2019-04-30T08:00:49.560Z,15.13
2019-04-30T08:03:35.276Z,14.73
2019-04-30T08:06:04.958Z,15.80
2019-04-30T08:08:33.408Z,16.35
2019-04-30T08:11:01.833Z,19.00
2019-04-30T08:13:32.750Z,18.77
2019-04-30T08:16:00.066Z,20.08
2019-04-30T08:18:29.518Z,16.30
2019-04-30T08:20:58.707Z,18.70
2019-04-30T08:23:34.889Z,17.48
2019-04-30T08:25:58.715Z,17.80
2019-04-30T08:28:30.181Z,17.32
2019-04-30T08:30:58.831Z,18.60
2019-04-30T08:33:29.217Z,14.00
2019-04-30T08:36:00.808Z,9.05
2019-04-30T08:38:27.285Z,12.85
2019-04-30T08:40:58.137Z,19.87
2019-04-30T08:43:25.460Z,14.53
2019-04-30T08:45:56.405Z,14.07
2019-04-30T08:48:24.736Z,10.53
2019-04-30T08:50:53.132Z,8.83
2019-04-30T08:53:29.789Z,8.48
2019-04-30T08:55:51.479Z,10.28
2019-04-30T08:58:20.504Z,9.30
2019-04-30T09:00:49.062Z,12.10
2019-04-30T09:03:19.314Z,8.65
2019-04-30T09:05:49.919Z,8.83
2019-04-30T09:08:19.349Z,14.68
2019-04-30T09:10:49.067Z,14.40
2019-04-30T09:13:19.203Z,8.43
2019-04-30T09:15:49.238Z,7.37
2019-04-30T09:18:19.060Z,10.25
2019-04-30T09:20:49.377Z,6.95
2019-04-30T09:23:18.732Z,7.22
2019-04-30T09:25:47.253Z,7.22
2019-04-30T09:28:15.539Z,7.40
2019-04-30T09:30:44.061Z,9.45
2019-04-30T09:33:12.352Z,6.62
2019-04-30T09:35:40.720Z,7.28
2019-04-30T09:38:09.241Z,7.28
2019-04-30T09:40:39.916Z,6.60
2019-04-30T09:43:08.682Z,6.65
2019-04-30T09:45:38.550Z,6.30
2019-04-30T09:48:09.266Z,6.22
2019-04-30T09:50:39.077Z,8.40
2019-04-30T09:53:07.089Z,7.87
2019-04-30T09:55:35.490Z,9.03
2019-04-30T09:58:14.228Z,8.48
2019-04-30T10:00:33.764Z,7.58
2019-04-30T10:03:02.185Z,6.53
2019-04-30T10:05:31.487Z,7.12
2019-04-30T10:07:59.920Z,8.98
2019-04-30T10:10:30.158Z,7.65
2019-04-30T10:12:59.264Z,7.35
2019-04-30T10:15:35.169Z,7.20
2019-04-30T10:18:03.560Z,9.63
2019-04-30T10:20:41.810Z,9.38
2019-04-30T10:23:10.234Z,13.05
2019-04-30T10:25:38.867Z,6.72
2019-04-30T10:28:09.763Z,6.55
2019-04-30T10:30:37.423Z,9.95
2019-04-30T10:33:05.846Z,8.20
2019-04-30T10:35:34.183Z,9.25
2019-04-30T10:38:02.513Z,8.28
2019-04-30T10:40:30.843Z,9.45
2019-04-30T10:42:59.171Z,6.70
2019-04-30T10:45:28.781Z,8.50
2019-04-30T10:47:59.141Z,6.30
2019-04-30T10:50:27.159Z,6.83
2019-04-30T10:52:55.471Z,8.10
2019-04-30T10:55:23.821Z,8.65
2019-04-30T10:57:53.792Z,8.90
2019-04-30T11:00:24.450Z,9.23
2019-04-30T11:02:53.094Z,9.05
2019-04-30T11:05:21.407Z,8.45
2019-04-30T11:07:49.665Z,8.50
2019-04-30T11:10:18.933Z,8.00
2019-04-30T11:12:47.332Z,11.10
2019-04-30T11:15:15.584Z,8.95
2019-04-30T11:17:44.031Z,10.72
2019-04-30T11:20:12.648Z,7.65
2019-04-30T11:22:41.316Z,9.55
2019-04-30T11:25:10.277Z,9.03
2019-04-30T11:27:40.845Z,8.13
2019-04-30T11:30:20.349Z,8.25
2019-04-30T11:32:39.064Z,7.87
2019-04-30T11:35:07.667Z,9.45
2019-04-30T11:37:36.118Z,10.48
2019-04-30T11:40:09.963Z,7.95
2019-04-30T11:42:38.426Z,10.38
2019-04-30T11:45:08.583Z,9.58
2019-04-30T11:47:38.439Z,10.90
2019-04-30T11:50:08.239Z,11.12
2019-04-30T11:52:36.747Z,13.75
2019-04-30T11:55:06.722Z,14.68
2019-04-30T11:57:35.008Z,11.10
2019-04-30T12:00:05.029Z,11.83
2019-04-30T12:02:39.217Z,12.73
2019-04-30T12:05:07.937Z,11.85
2019-04-30T12:07:43.386Z,9.35
2019-04-30T12:10:25.308Z,8.70
2019-04-30T12:12:53.680Z,14.50
2019-04-30T12:15:22.121Z,16.32
2019-04-30T12:17:50.471Z,14.65
2019-04-30T12:20:19.675Z,14.03
2019-04-30T12:22:49.363Z,16.20
2019-04-30T12:25:18.738Z,12.43
2019-04-30T12:27:48.788Z,16.73
2019-04-30T12:30:20.529Z,18.32
2019-04-30T12:32:49.256Z,15.70
2019-04-30T12:35:20.641Z,17.15
2019-04-30T12:37:52.082Z,14.43
2019-04-30T12:40:28.886Z,13.93
2019-04-30T12:42:48.912Z,13.48
2019-04-30T12:45:19.335Z,11.43
2019-04-30T12:47:48.936Z,12.85
2019-04-30T12:50:29.191Z,12.70
2019-04-30T12:53:01.855Z,19.05
2019-04-30T12:55:31.966Z,14.50
2019-04-30T12:58:01.893Z,17.42
2019-04-30T13:00:30.537Z,13.10
2019-04-30T13:02:58.958Z,13.95
2019-04-30T13:05:29.150Z,15.28
2019-04-30T13:07:59.533Z,12.43
2019-04-30T13:10:27.987Z,14.47
2019-04-30T13:12:59.932Z,14.47
2019-04-30T13:15:28.460Z,13.60
2019-04-30T13:17:58.579Z,10.53
2019-04-30T13:20:29.139Z,13.98
2019-04-30T13:22:58.756Z,15.45
2019-04-30T13:25:30.865Z,13.00
2019-04-30T13:27:58.951Z,9.68
2019-04-30T13:30:29.900Z,15.68
2019-04-30T13:33:05.973Z,13.65
2019-04-30T13:35:34.620Z,13.75
2019-04-30T13:38:04.583Z,8.00
2019-04-30T13:40:38.935Z,12.68
2019-04-30T13:43:09.119Z,12.68
2019-04-30T13:45:38.817Z,12.68
2019-04-30T13:48:08.949Z,9.15
2019-04-30T13:50:39.102Z,13.00
2019-04-30T13:53:08.872Z,16.40
2019-04-30T13:55:45.407Z,18.87
2019-04-30T13:58:07.337Z,12.75
2019-04-30T14:00:35.704Z,16.52
2019-04-30T14:03:19.222Z,9.38
2019-04-30T14:05:49.127Z,10.72
2019-04-30T14:08:20.027Z,14.87
2019-04-30T14:10:59.077Z,10.15
2019-04-30T14:13:27.524Z,14.28
2019-04-30T14:15:55.966Z,14.93
2019-04-30T14:18:30.857Z,14.70
2019-04-30T14:20:54.360Z,17.55
2019-04-30T14:23:22.679Z,17.20
2019-04-30T14:25:56.794Z,16.30
2019-04-30T14:28:21.045Z,15.08
2019-04-30T14:30:49.363Z,12.78
2019-04-30T14:33:24.262Z,12.75
2019-04-30T14:35:49.680Z,10.95
2019-04-30T14:38:19.033Z,12.75
2019-04-30T14:40:48.351Z,8.50
2019-04-30T14:43:41.500Z,13.60
2019-04-30T14:46:11.871Z,11.63
2019-04-30T14:48:43.020Z,12.45
2019-04-30T14:51:11.717Z,10.20
2019-04-30T14:53:50.108Z,9.58
2019-04-30T14:56:22.804Z,11.15
2019-04-30T14:58:52.990Z,13.98
2019-04-30T15:01:39.088Z,16.42
2019-04-30T15:04:07.575Z,19.32
2019-04-30T15:06:35.973Z,19.23
2019-04-30T15:09:06.164Z,22.52
2019-04-30T15:11:34.531Z,16.97
2019-04-30T15:14:02.850Z,19.62
2019-04-30T15:16:31.241Z,13.70
2019-04-30T15:18:59.499Z,17.95
2019-04-30T15:21:27.932Z,13.68
2019-04-30T15:24:00.931Z,11.65
2019-04-30T15:26:28.739Z,18.23
2019-04-30T15:28:59.689Z,14.03
2019-04-30T15:31:27.273Z,16.15
2019-04-30T15:34:03.020Z,14.28
2019-04-30T15:36:29.170Z,21.10
2019-04-30T15:39:01.827Z,16.40
2019-04-30T15:41:30.473Z,14.10
2019-04-30T15:43:58.926Z,12.25
2019-04-30T15:46:27.341Z,13.00
2019-04-30T15:48:55.817Z,17.62
2019-04-30T15:51:24.251Z,12.80
2019-04-30T15:53:52.642Z,19.17
2019-04-30T15:56:21.067Z,13.72
2019-04-30T15:59:08.896Z,17.02
2019-04-30T16:01:38.269Z,16.97
2019-04-30T16:04:10.053Z,15.25
2019-04-30T16:06:38.533Z,13.25
2019-04-30T16:09:26.368Z,14.33
2019-04-30T16:12:05.381Z,15.90
2019-04-30T16:14:35.365Z,12.82
2019-04-30T16:17:08.012Z,15.88
2019-04-30T16:19:36.385Z,13.43
2019-04-30T16:22:05.953Z,19.40
2019-04-30T16:24:34.398Z,13.50
2019-04-30T16:27:02.722Z,13.15
2019-04-30T16:29:31.137Z,13.43
2019-04-30T16:31:59.638Z,13.90
2019-04-30T16:34:30.196Z,16.52
2019-04-30T16:36:59.001Z,13.35
2019-04-30T16:39:28.815Z,14.15
2019-04-30T16:41:59.172Z,12.80
2019-04-30T16:44:27.367Z,15.90
2019-04-30T16:46:55.670Z,13.60
2019-04-30T16:49:23.997Z,11.33
2019-04-30T16:51:52.261Z,11.63
2019-04-30T16:54:20.627Z,14.35
2019-04-30T16:57:02.809Z,10.93
2019-04-30T16:59:20.850Z,11.65
2019-04-30T17:01:57.535Z,11.50
2019-04-30T17:04:29.942Z,11.38
2019-04-30T17:07:16.039Z,13.50
2019-04-30T17:09:59.045Z,12.82
2019-04-30T17:12:29.417Z,13.18
2019-04-30T17:15:14.252Z,10.58
2019-04-30T17:17:42.611Z,10.30
2019-04-30T17:20:11.032Z,11.50
2019-04-30T17:22:39.508Z,10.43
2019-04-30T17:25:08.625Z,11.08
2019-04-30T17:27:39.115Z,10.45
2019-04-30T17:30:09.076Z,10.53
2019-04-30T17:32:39.469Z,9.35
2019-04-30T17:35:09.058Z,11.05
2019-04-30T17:37:37.398Z,9.85
2019-04-30T17:40:06.494Z,8.65
2019-04-30T17:42:34.816Z,9.50
2019-04-30T17:45:03.657Z,8.95
2019-04-30T17:47:31.997Z,10.82
2019-04-30T17:50:00.282Z,9.45
2019-04-30T17:52:29.839Z,9.45
2019-04-30T17:54:59.538Z,10.25
2019-04-30T17:57:33.854Z,9.90
2019-04-30T17:59:59.172Z,10.30
2019-04-30T18:02:29.416Z,9.90
2019-04-30T18:04:58.020Z,10.03
2019-04-30T18:07:26.434Z,10.38
2019-04-30T18:09:54.767Z,7.90
2019-04-30T18:12:23.190Z,9.75
2019-04-30T18:14:51.524Z,9.03
2019-04-30T18:17:20.358Z,9.48
2019-04-30T18:20:01.898Z,9.60
2019-04-30T18:22:37.431Z,8.55
2019-04-30T18:25:13.338Z,8.25
2019-04-30T18:27:55.201Z,7.22
2019-04-30T18:30:25.225Z,9.90
2019-04-30T18:32:53.817Z,7.97
2019-04-30T18:35:22.150Z,7.12
2019-04-30T18:37:50.590Z,8.90
2019-04-30T18:40:19.003Z,8.20
2019-04-30T18:42:49.345Z,9.35
2019-04-30T18:45:19.430Z,8.45
2019-04-30T18:47:47.878Z,7.83
2019-04-30T18:50:16.235Z,8.60
2019-04-30T18:52:44.543Z,9.20
2019-04-30T18:55:12.921Z,9.43
2019-04-30T18:57:41.263Z,12.18
2019-04-30T19:00:10.095Z,11.12
2019-04-30T19:02:40.363Z,8.65
2019-04-30T19:05:10.222Z,12.55
2019-04-30T19:07:55.372Z,8.45
2019-04-30T19:10:31.110Z,10.20
2019-04-30T19:13:03.892Z,10.32
2019-04-30T19:18:07.446Z,8.68
2019-04-30T19:20:38.556Z,9.45
2019-04-30T19:23:09.992Z,9.68
2019-04-30T19:25:38.552Z,12.65
2019-04-30T19:28:12.090Z,10.60
2019-04-30T19:30:38.880Z,12.40
2019-04-30T19:33:08.694Z,9.93
2019-04-30T19:35:37.149Z,11.43
2019-04-30T19:38:05.476Z,11.75
2019-04-30T19:40:33.937Z,12.10
2019-04-30T19:43:02.341Z,10.40
2019-04-30T19:45:30.699Z,10.70
2019-04-30T19:47:59.410Z,10.78
2019-04-30T19:50:28.170Z,9.58
2019-04-30T19:52:58.630Z,10.58
2019-04-30T19:55:28.617Z,13.62
2019-04-30T19:57:59.704Z,12.58
2019-04-30T20:00:29.308Z,12.00
2019-04-30T20:02:59.897Z,12.33
2019-04-30T20:05:28.686Z,13.28
2019-04-30T20:07:59.093Z,11.35
2019-04-30T20:10:28.759Z,13.30
2019-04-30T20:12:58.782Z,7.78
2019-04-30T20:15:29.637Z,12.43
2019-04-30T20:18:00.998Z,9.35
2019-04-30T20:20:28.937Z,11.30
2019-04-30T20:22:57.398Z,13.85
2019-04-30T20:25:25.783Z,9.70
2019-04-30T20:27:54.274Z,11.97
2019-04-30T20:30:22.635Z,10.43
2019-04-30T20:32:51.398Z,12.23
2019-04-30T20:35:19.888Z,13.05
2019-04-30T20:38:05.945Z,9.98
2019-04-30T20:40:43.424Z,10.20
2019-04-30T20:43:05.297Z,10.40
2019-04-30T20:45:33.729Z,12.58
2019-04-30T20:48:02.189Z,11.38
2019-04-30T20:50:30.540Z,10.05
2019-04-30T20:52:59.095Z,10.80
2019-04-30T20:55:27.442Z,8.20
2019-04-30T20:57:55.973Z,9.75
2019-04-30T21:00:25.160Z,10.93
2019-04-30T21:02:53.859Z,9.08
2019-04-30T21:05:22.265Z,10.75
2019-04-30T21:07:50.672Z,10.48
2019-04-30T21:10:19.943Z,11.97
2019-04-30T21:12:49.846Z,8.53
2019-04-30T21:15:19.659Z,9.45
2019-04-30T21:17:48.439Z,10.38
2019-04-30T21:20:19.363Z,8.55
2019-04-30T21:22:49.416Z,7.90
2019-04-30T21:25:18.857Z,8.35
2019-04-30T21:27:49.873Z,10.38
2019-04-30T21:30:17.384Z,10.63
2019-04-30T21:33:03.549Z,11.85
2019-04-30T21:35:36.292Z,9.20
2019-04-30T21:40:36.643Z,9.70
2019-04-30T21:43:03.980Z,9.03
2019-04-30T21:45:32.356Z,9.90
2019-04-30T21:48:01.464Z,12.05
2019-04-30T21:50:30.021Z,10.53
2019-04-30T21:52:59.741Z,10.98
2019-04-30T21:55:29.583Z,11.73
2019-04-30T21:57:59.464Z,7.90
2019-04-30T22:00:42.190Z,8.28
2019-04-30T22:03:10.596Z,8.85
2019-04-30T22:05:39.050Z,9.40
2019-04-30T22:08:09.085Z,11.65
2019-04-30T22:10:37.563Z,9.33
2019-04-30T22:13:05.891Z,9.45
2019-04-30T22:15:34.310Z,8.30
2019-04-30T22:18:02.656Z,10.05
2019-04-30T22:20:30.991Z,10.72
2019-04-30T22:22:59.346Z,9.13
2019-04-30T22:25:29.337Z,7.92
2019-04-30T22:27:57.646Z,9.38
2019-04-30T22:30:26.018Z,7.12
2019-04-30T22:32:54.262Z,8.95
2019-04-30T22:35:24.229Z,9.35
2019-04-30T22:37:54.176Z,7.08
2019-04-30T22:40:22.500Z,9.28
2019-04-30T22:42:50.818Z,9.70
2019-04-30T22:45:20.790Z,7.47
2019-04-30T22:47:50.388Z,8.13
2019-04-30T22:50:18.777Z,5.80
2019-04-30T22:52:47.062Z,8.98
2019-04-30T22:55:15.393Z,7.70
2019-04-30T22:57:43.658Z,7.25
2019-04-30T23:00:13.859Z,9.60
2019-04-30T23:02:49.321Z,7.97
2019-04-30T23:05:18.172Z,7.97
2019-04-30T23:07:46.512Z,8.05
2019-04-30T23:10:16.427Z,9.40
2019-04-30T23:12:44.783Z,8.23
2019-04-30T23:15:13.087Z,7.55
2019-04-30T23:17:41.406Z,6.10
2019-04-30T23:20:09.983Z,5.55
2019-04-30T23:22:38.454Z,8.75
2019-04-30T23:25:06.625Z,6.45
2019-04-30T23:27:34.965Z,6.08
2019-04-30T23:30:03.981Z,6.08
2019-04-30T23:32:32.325Z,6.72
2019-04-30T23:35:00.720Z,6.55
2019-04-30T23:37:28.996Z,5.95
2019-04-30T23:39:58.714Z,5.87
2019-04-30T23:42:27.054Z,7.45
2019-04-30T23:44:55.389Z,7.03
2019-04-30T23:47:23.781Z,7.85
2019-04-30T23:49:52.129Z,8.55
2019-04-30T23:52:20.400Z,6.35
2019-04-30T23:54:48.847Z,8.13
2019-04-30T23:57:17.362Z,10.28
2019-04-30T23:59:45.681Z,8.28
